الصفحة الرئيسية
METAR-TAF:

METAR-TAF

مطار :

Foz do Iguaçu, بارانا, البرازيل

دائرة عرض: 25-31S, خط طول: 054-35W, ارتفاع: 180 متر

مراقبة الطقس الحالي

تاريخ ووقت الإصدار 1ساعة و 3 دقيقة قبل الساعة 12:00UTC
ريح 10 عقدة من الشرق/الجنوب الشرقي
درجة الحرارة 17°درجة مئوية
الرطوبة 82%
ضغط 1022 hPa
الرؤية 10 كم أو أكثر
الغيوم لا تقل 1500 م ولا وجود لمزنة ركامية السحاب الأسود

METAR: SBFI 221200Z 11010KT CAVOK 17/14 Q1022

زمن: 10:03 (13:03 UTC)

توقعات

تاريخ ووقت الإصدار 4ساعات و 3 دقيقة قبل الساعة 09:00UTC
التوقعات صالحة من22 الساعة 12 UTC إلى 23 الساعة 12 UTC
ريح 5 عقدة من الشرق
الرؤية 10 كم أو أكثر
الغيوم لا تقل 1500 م ولا وجود لمزنة ركامية السحاب الأسود

TAF: SBFI 220900Z 2212/2312 10005KT CAVOK TX26/2218Z TN13/2309Z RMK PEU

أرصاد الطقس والتوقعات من أكثر من 4000 مطار (تقارير الطقس للمطار METAR والتنبؤ بالطقس بالمطارTAF).

المحطات المتاحة هي النقط الصفراء والحمراء على الخريطة.

حرك المؤشر فوق النقطة لمعرفة اسم المحطة.

ثم انقر لمعرفة أرصاد وتوقعات الطقس.

لتغيير الخارطة: اضغط على الأزرار الخضراء مع رمز الصليب الأسود للتكبير. على الزر الأخضر مع شرطة للتصغير، أو على الأسهم الخضراء للخرائط المجاورة.


METAR-TAF: